sensor_id;sensor_type;location;lat;lon;timestamp;temperature;humidity
16243;DHT22;11719;51.052;6.982;2023-08-01T00:02:00;21.00;99.90
16243;DHT22;11719;51.052;6.982;2023-08-01T00:04:26;21.00;99.90
16243;DHT22;11719;51.052;6.982;2023-08-01T00:06:52;21.00;99.90
16243;DHT22;11719;51.052;6.982;2023-08-01T00:09:18;20.90;99.90
16243;DHT22;11719;51.052;6.982;2023-08-01T00:11:44;20.90;99.90
16243;DHT22;11719;51.052;6.982;2023-08-01T00:14:09;20.90;99.90
16243;DHT22;11719;51.052;6.982;2023-08-01T00:16:35;20.90;99.90
16243;DHT22;11719;51.052;6.982;2023-08-01T00:19:01;20.90;99.90
16243;DHT22;11719;51.052;6.982;2023-08-01T00:21:27;20.90;99.90
16243;DHT22;11719;51.052;6.982;2023-08-01T00:23:53;20.90;99.90
16243;DHT22;11719;51.052;6.982;2023-08-01T00:26:19;20.90;99.90
16243;DHT22;11719;51.052;6.982;2023-08-01T00:28:44;20.90;99.90
16243;DHT22;11719;51.052;6.982;2023-08-01T00:31:10;20.90;99.90
16243;DHT22;11719;51.052;6.982;2023-08-01T00:33:36;20.90;99.90
16243;DHT22;11719;51.052;6.982;2023-08-01T00:36:02;20.90;99.90
16243;DHT22;11719;51.052;6.982;2023-08-01T00:38:28;20.90;99.90
16243;DHT22;11719;51.052;6.982;2023-08-01T00:40:55;20.90;99.90
16243;DHT22;11719;51.052;6.982;2023-08-01T00:43:20;20.90;99.90
16243;DHT22;11719;51.052;6.982;2023-08-01T00:45:46;20.80;99.90
16243;DHT22;11719;51.052;6.982;2023-08-01T00:48:12;20.80;99.90
16243;DHT22;11719;51.052;6.982;2023-08-01T00:50:39;20.80;99.90
16243;DHT22;11719;51.052;6.982;2023-08-01T00:53:05;20.80;99.90
16243;DHT22;11719;51.052;6.982;2023-08-01T00:55:32;20.90;99.90
16243;DHT22;11719;51.052;6.982;2023-08-01T00:57:59;21.00;99.90
16243;DHT22;11719;51.052;6.982;2023-08-01T01:00:25;21.00;99.90
16243;DHT22;11719;51.052;6.982;2023-08-01T01:02:51;21.00;99.90
16243;DHT22;11719;51.052;6.982;2023-08-01T01:05:17;20.90;99.90
16243;DHT22;11719;51.052;6.982;2023-08-01T01:07:45;21.00;99.90
16243;DHT22;11719;51.052;6.982;2023-08-01T01:10:11;20.90;99.90
16243;DHT22;11719;51.052;6.982;2023-08-01T01:12:36;20.90;99.90
16243;DHT22;11719;51.052;6.982;2023-08-01T01:15:02;20.90;99.90
16243;DHT22;11719;51.052;6.982;2023-08-01T01:17:30;20.80;99.90
16243;DHT22;11719;51.052;6.982;2023-08-01T01:19:56;20.80;99.90
16243;DHT22;11719;51.052;6.982;2023-08-01T01:22:23;20.70;99.90
16243;DHT22;11719;51.052;6.982;2023-08-01T01:24:49;20.60;99.90
16243;DHT22;11719;51.052;6.982;2023-08-01T01:27:16;20.60;99.90
16243;DHT22;11719;51.052;6.982;2023-08-01T01:29:43;20.60;99.90
16243;DHT22;11719;51.052;6.982;2023-08-01T01:32:10;20.60;99.90
16243;DHT22;11719;51.052;6.982;2023-08-01T01:34:36;20.60;99.90
16243;DHT22;11719;51.052;6.982;2023-08-01T01:37:01;20.70;99.90
16243;DHT22;11719;51.052;6.982;2023-08-01T01:39:28;20.70;99.90
16243;DHT22;11719;51.052;6.982;2023-08-01T01:41:54;20.70;99.90
16243;DHT22;11719;51.052;6.982;2023-08-01T01:44:20;20.60;99.90
16243;DHT22;11719;51.052;6.982;2023-08-01T01:46:46;20.50;99.90
16243;DHT22;11719;51.052;6.982;2023-08-01T01:49:14;20.60;99.90
16243;DHT22;11719;51.052;6.982;2023-08-01T01:51:40;20.60;99.90
16243;DHT22;11719;51.052;6.982;2023-08-01T01:54:06;20.60;99.90
16243;DHT22;11719;51.052;6.982;2023-08-01T01:56:31;20.60;99.90
16243;DHT22;11719;51.052;6.982;2023-08-01T01:58:58;20.70;99.90
16243;DHT22;11719;51.052;6.982;2023-08-01T02:01:24;20.70;99.90
16243;DHT22;11719;51.052;6.982;2023-08-01T02:03:49;20.70;99.90
16243;DHT22;11719;51.052;6.982;2023-08-01T02:06:15;20.70;99.90
16243;DHT22;11719;51.052;6.982;2023-08-01T02:08:41;20.70;99.90
16243;DHT22;11719;51.052;6.982;2023-08-01T02:11:07;20.70;99.90
16243;DHT22;11719;51.052;6.982;2023-08-01T02:13:32;20.70;99.90
16243;DHT22;11719;51.052;6.982;2023-08-01T02:15:59;20.70;99.90
16243;DHT22;11719;51.052;6.982;2023-08-01T02:18:25;20.70;99.90
16243;DHT22;11719;51.052;6.982;2023-08-01T02:20:51;20.70;99.90
16243;DHT22;11719;51.052;6.982;2023-08-01T02:23:16;20.70;99.90
16243;DHT22;11719;51.052;6.982;2023-08-01T02:25:42;20.70;99.90
16243;DHT22;11719;51.052;6.982;2023-08-01T02:28:08;20.80;99.90
16243;DHT22;11719;51.052;6.982;2023-08-01T02:30:35;20.70;99.90
16243;DHT22;11719;51.052;6.982;2023-08-01T02:33:01;20.70;99.90
16243;DHT22;11719;51.052;6.982;2023-08-01T02:35:28;20.70;99.90
16243;DHT22;11719;51.052;6.982;2023-08-01T02:37:54;20.70;99.90
16243;DHT22;11719;51.052;6.982;2023-08-01T02:40:20;20.80;99.90
16243;DHT22;11719;51.052;6.982;2023-08-01T02:42:46;20.80;99.90
16243;DHT22;11719;51.052;6.982;2023-08-01T02:45:12;20.70;99.90
16243;DHT22;11719;51.052;6.982;2023-08-01T02:47:38;20.80;99.90
16243;DHT22;11719;51.052;6.982;2023-08-01T02:50:04;20.70;99.90
16243;DHT22;11719;51.052;6.982;2023-08-01T02:52:31;20.70;99.90
16243;DHT22;11719;51.052;6.982;2023-08-01T02:54:57;20.70;99.90
16243;DHT22;11719;51.052;6.982;2023-08-01T02:57:24;20.70;99.90
16243;DHT22;11719;51.052;6.982;2023-08-01T02:59:50;20.70;99.90
16243;DHT22;11719;51.052;6.982;2023-08-01T03:02:16;20.70;99.90
16243;DHT22;11719;51.052;6.982;2023-08-01T03:04:41;20.70;99.90
16243;DHT22;11719;51.052;6.982;2023-08-01T03:07:07;20.70;99.90
16243;DHT22;11719;51.052;6.982;2023-08-01T03:09:33;20.70;99.90
16243;DHT22;11719;51.052;6.982;2023-08-01T03:11:59;20.70;99.90
16243;DHT22;11719;51.052;6.982;2023-08-01T03:14:25;20.70;99.90
16243;DHT22;11719;51.052;6.982;2023-08-01T03:16:50;20.70;99.90
16243;DHT22;11719;51.052;6.982;2023-08-01T03:19:16;20.70;99.90
16243;DHT22;11719;51.052;6.982;2023-08-01T03:21:42;20.70;99.90
16243;DHT22;11719;51.052;6.982;2023-08-01T03:24:08;20.70;99.90
16243;DHT22;11719;51.052;6.982;2023-08-01T03:26:35;20.70;99.90
16243;DHT22;11719;51.052;6.982;2023-08-01T03:29:01;20.70;99.90
16243;DHT22;11719;51.052;6.982;2023-08-01T03:31:28;20.70;99.90
16243;DHT22;11719;51.052;6.982;2023-08-01T03:33:54;20.70;99.90
16243;DHT22;11719;51.052;6.982;2023-08-01T03:36:20;20.60;99.90
16243;DHT22;11719;51.052;6.982;2023-08-01T03:38:46;20.50;99.90
16243;DHT22;11719;51.052;6.982;2023-08-01T03:41:12;20.50;99.90
16243;DHT22;11719;51.052;6.982;2023-08-01T03:43:38;20.50;99.90
16243;DHT22;11719;51.052;6.982;2023-08-01T03:46:04;20.40;99.90
16243;DHT22;11719;51.052;6.982;2023-08-01T03:48:30;20.30;99.90
16243;DHT22;11719;51.052;6.982;2023-08-01T03:50:56;20.30;99.90
16243;DHT22;11719;51.052;6.982;2023-08-01T03:53:22;20.30;99.90
16243;DHT22;11719;51.052;6.982;2023-08-01T03:55:48;20.20;99.90
16243;DHT22;11719;51.052;6.982;2023-08-01T03:58:14;20.10;99.90
16243;DHT22;11719;51.052;6.982;2023-08-01T04:00:40;20.10;99.90
16243;DHT22;11719;51.052;6.982;2023-08-01T04:03:06;20.10;99.90
16243;DHT22;11719;51.052;6.982;2023-08-01T04:05:31;19.90;99.90
16243;DHT22;11719;51.052;6.982;2023-08-01T04:07:57;19.90;99.90
16243;DHT22;11719;51.052;6.982;2023-08-01T04:10:24;19.80;99.90
16243;DHT22;11719;51.052;6.982;2023-08-01T04:12:50;19.80;99.90
16243;DHT22;11719;51.052;6.982;2023-08-01T04:15:16;19.80;99.90
16243;DHT22;11719;51.052;6.982;2023-08-01T04:17:41;19.80;99.90
16243;DHT22;11719;51.052;6.982;2023-08-01T04:20:07;19.80;99.90
16243;DHT22;11719;51.052;6.982;2023-08-01T04:22:33;19.80;99.90
16243;DHT22;11719;51.052;6.982;2023-08-01T04:25:01;19.80;99.90
16243;DHT22;11719;51.052;6.982;2023-08-01T04:27:27;19.80;99.90
16243;DHT22;11719;51.052;6.982;2023-08-01T04:29:54;19.70;99.90
16243;DHT22;11719;51.052;6.982;2023-08-01T04:32:20;19.60;99.90
16243;DHT22;11719;51.052;6.982;2023-08-01T04:34:46;19.60;99.90
16243;DHT22;11719;51.052;6.982;2023-08-01T04:37:12;19.60;99.90
16243;DHT22;11719;51.052;6.982;2023-08-01T04:39:38;19.60;99.90
16243;DHT22;11719;51.052;6.982;2023-08-01T04:42:04;19.60;99.90
16243;DHT22;11719;51.052;6.982;2023-08-01T04:44:30;19.60;99.90
16243;DHT22;11719;51.052;6.982;2023-08-01T04:46:56;19.60;99.90
16243;DHT22;11719;51.052;6.982;2023-08-01T04:49:22;19.60;99.90
16243;DHT22;11719;51.052;6.982;2023-08-01T04:51:49;19.70;99.90
16243;DHT22;11719;51.052;6.982;2023-08-01T04:54:15;19.80;99.90
16243;DHT22;11719;51.052;6.982;2023-08-01T04:56:41;19.80;99.90
16243;DHT22;11719;51.052;6.982;2023-08-01T04:59:07;19.80;99.90
16243;DHT22;11719;51.052;6.982;2023-08-01T05:01:33;19.90;99.90
16243;DHT22;11719;51.052;6.982;2023-08-01T05:03:59;19.90;99.90
16243;DHT22;11719;51.052;6.982;2023-08-01T05:06:25;19.90;99.90
16243;DHT22;11719;51.052;6.982;2023-08-01T05:08:51;20.00;99.90
16243;DHT22;11719;51.052;6.982;2023-08-01T05:11:16;20.00;99.90
16243;DHT22;11719;51.052;6.982;2023-08-01T05:13:42;20.00;99.90
16243;DHT22;11719;51.052;6.982;2023-08-01T05:16:08;20.00;99.90
16243;DHT22;11719;51.052;6.982;2023-08-01T05:18:34;20.10;99.90
16243;DHT22;11719;51.052;6.982;2023-08-01T05:20:59;20.00;99.90
16243;DHT22;11719;51.052;6.982;2023-08-01T05:23:25;20.00;99.90
16243;DHT22;11719;51.052;6.982;2023-08-01T05:25:51;20.10;99.90
16243;DHT22;11719;51.052;6.982;2023-08-01T05:28:17;20.10;99.90
16243;DHT22;11719;51.052;6.982;2023-08-01T05:30:42;20.10;99.90
16243;DHT22;11719;51.052;6.982;2023-08-01T05:33:08;20.10;99.90
16243;DHT22;11719;51.052;6.982;2023-08-01T05:35:34;20.20;99.90
16243;DHT22;11719;51.052;6.982;2023-08-01T05:38:00;20.20;99.90
16243;DHT22;11719;51.052;6.982;2023-08-01T05:40:26;20.20;99.90
16243;DHT22;11719;51.052;6.982;2023-08-01T05:42:51;20.20;99.90
16243;DHT22;11719;51.052;6.982;2023-08-01T05:45:17;20.20;99.90
16243;DHT22;11719;51.052;6.982;2023-08-01T05:47:43;20.20;99.90
16243;DHT22;11719;51.052;6.982;2023-08-01T05:50:09;20.30;99.90
16243;DHT22;11719;51.052;6.982;2023-08-01T05:52:35;20.30;99.90
16243;DHT22;11719;51.052;6.982;2023-08-01T05:55:01;20.30;99.90
16243;DHT22;11719;51.052;6.982;2023-08-01T05:57:27;20.40;99.90
16243;DHT22;11719;51.052;6.982;2023-08-01T05:59:53;20.30;99.90
16243;DHT22;11719;51.052;6.982;2023-08-01T06:02:19;20.40;99.90
16243;DHT22;11719;51.052;6.982;2023-08-01T06:04:44;20.40;99.90
16243;DHT22;11719;51.052;6.982;2023-08-01T06:07:10;20.30;99.90
16243;DHT22;11719;51.052;6.982;2023-08-01T06:09:36;20.30;99.90
16243;DHT22;11719;51.052;6.982;2023-08-01T06:12:02;20.30;99.90
16243;DHT22;11719;51.052;6.982;2023-08-01T06:14:28;20.30;99.90
16243;DHT22;11719;51.052;6.982;2023-08-01T06:16:54;20.30;99.90
16243;DHT22;11719;51.052;6.982;2023-08-01T06:19:19;20.20;99.90
16243;DHT22;11719;51.052;6.982;2023-08-01T06:21:45;20.20;99.90
16243;DHT22;11719;51.052;6.982;2023-08-01T06:24:11;20.20;99.90
16243;DHT22;11719;51.052;6.982;2023-08-01T06:26:37;20.30;99.90
16243;DHT22;11719;51.052;6.982;2023-08-01T06:29:02;20.30;99.90
16243;DHT22;11719;51.052;6.982;2023-08-01T06:31:28;20.30;99.90
16243;DHT22;11719;51.052;6.982;2023-08-01T06:33:54;20.30;99.90
16243;DHT22;11719;51.052;6.982;2023-08-01T06:36:20;20.30;99.90
16243;DHT22;11719;51.052;6.982;2023-08-01T06:38:46;20.30;99.90
16243;DHT22;11719;51.052;6.982;2023-08-01T06:41:12;20.30;99.90
16243;DHT22;11719;51.052;6.982;2023-08-01T06:43:37;20.30;99.90
16243;DHT22;11719;51.052;6.982;2023-08-01T06:46:04;20.20;99.90
16243;DHT22;11719;51.052;6.982;2023-08-01T06:48:31;20.20;99.90
16243;DHT22;11719;51.052;6.982;2023-08-01T06:50:57;20.30;99.90
16243;DHT22;11719;51.052;6.982;2023-08-01T06:53:23;20.30;99.90
16243;DHT22;11719;51.052;6.982;2023-08-01T06:55:48;20.30;99.90
16243;DHT22;11719;51.052;6.982;2023-08-01T06:58:14;20.40;99.90
16243;DHT22;11719;51.052;6.982;2023-08-01T07:00:40;20.30;99.90
16243;DHT22;11719;51.052;6.982;2023-08-01T07:03:06;20.30;99.90
16243;DHT22;11719;51.052;6.982;2023-08-01T07:05:32;20.40;99.90
16243;DHT22;11719;51.052;6.982;2023-08-01T07:07:57;20.40;99.90
16243;DHT22;11719;51.052;6.982;2023-08-01T07:10:23;20.40;99.90
16243;DHT22;11719;51.052;6.982;2023-08-01T07:12:49;20.40;99.90
16243;DHT22;11719;51.052;6.982;2023-08-01T07:15:15;20.40;99.90
16243;DHT22;11719;51.052;6.982;2023-08-01T07:17:40;20.50;99.90
16243;DHT22;11719;51.052;6.982;2023-08-01T07:20:06;20.40;99.90
16243;DHT22;11719;51.052;6.982;2023-08-01T07:22:32;20.40;99.90
16243;DHT22;11719;51.052;6.982;2023-08-01T07:24:58;20.40;99.90
16243;DHT22;11719;51.052;6.982;2023-08-01T07:27:24;20.50;99.90
16243;DHT22;11719;51.052;6.982;2023-08-01T07:29:49;20.50;99.90
16243;DHT22;11719;51.052;6.982;2023-08-01T07:32:15;20.40;99.90
16243;DHT22;11719;51.052;6.982;2023-08-01T07:34:56;20.30;99.90
16243;DHT22;11719;51.052;6.982;2023-08-01T07:37:22;20.40;99.90
16243;DHT22;11719;51.052;6.982;2023-08-01T07:39:49;20.40;99.90
16243;DHT22;11719;51.052;6.982;2023-08-01T07:42:15;20.30;99.90
16243;DHT22;11719;51.052;6.982;2023-08-01T07:44:41;20.30;99.90
16243;DHT22;11719;51.052;6.982;2023-08-01T07:47:07;20.30;99.90
16243;DHT22;11719;51.052;6.982;2023-08-01T07:49:33;20.30;99.90
16243;DHT22;11719;51.052;6.982;2023-08-01T07:51:59;20.30;99.90
16243;DHT22;11719;51.052;6.982;2023-08-01T07:54:25;20.40;99.90
16243;DHT22;11719;51.052;6.982;2023-08-01T07:56:51;20.40;99.90
16243;DHT22;11719;51.052;6.982;2023-08-01T07:59:16;20.50;99.90
16243;DHT22;11719;51.052;6.982;2023-08-01T08:01:42;20.50;99.90
16243;DHT22;11719;51.052;6.982;2023-08-01T08:04:08;20.50;99.90
16243;DHT22;11719;51.052;6.982;2023-08-01T08:06:34;20.50;99.90
16243;DHT22;11719;51.052;6.982;2023-08-01T08:09:01;20.50;99.90
16243;DHT22;11719;51.052;6.982;2023-08-01T08:11:26;20.50;99.90
16243;DHT22;11719;51.052;6.982;2023-08-01T08:13:52;20.60;99.90
16243;DHT22;11719;51.052;6.982;2023-08-01T08:16:18;20.60;99.90
16243;DHT22;11719;51.052;6.982;2023-08-01T08:18:44;20.50;99.90
16243;DHT22;11719;51.052;6.982;2023-08-01T08:21:10;20.50;99.90
16243;DHT22;11719;51.052;6.982;2023-08-01T08:23:35;19.70;99.90
16243;DHT22;11719;51.052;6.982;2023-08-01T08:26:01;19.60;99.90
16243;DHT22;11719;51.052;6.982;2023-08-01T08:28:31;19.80;99.90
16243;DHT22;11719;51.052;6.982;2023-08-01T08:31:00;19.90;99.90
16243;DHT22;11719;51.052;6.982;2023-08-01T08:33:28;20.10;99.90
16243;DHT22;11719;51.052;6.982;2023-08-01T08:35:54;20.20;99.90
16243;DHT22;11719;51.052;6.982;2023-08-01T08:38:20;20.30;99.90
16243;DHT22;11719;51.052;6.982;2023-08-01T08:43:29;20.30;99.90
16243;DHT22;11719;51.052;6.982;2023-08-01T08:45:57;20.30;99.90
16243;DHT22;11719;51.052;6.982;2023-08-01T08:48:26;20.40;99.90
16243;DHT22;11719;51.052;6.982;2023-08-01T08:50:52;20.40;99.90
16243;DHT22;11719;51.052;6.982;2023-08-01T08:53:20;20.40;99.90
16243;DHT22;11719;51.052;6.982;2023-08-01T08:55:48;20.40;99.90
16243;DHT22;11719;51.052;6.982;2023-08-01T08:58:15;20.40;99.90
16243;DHT22;11719;51.052;6.982;2023-08-01T09:00:42;20.40;99.90
16243;DHT22;11719;51.052;6.982;2023-08-01T09:03:08;20.40;99.90
16243;DHT22;11719;51.052;6.982;2023-08-01T09:05:54;20.40;99.90
16243;DHT22;11719;51.052;6.982;2023-08-01T09:08:28;20.40;99.90
16243;DHT22;11719;51.052;6.982;2023-08-01T09:10:55;20.50;99.90
16243;DHT22;11719;51.052;6.982;2023-08-01T09:13:21;20.50;99.90
16243;DHT22;11719;51.052;6.982;2023-08-01T09:15:47;20.40;99.90
16243;DHT22;11719;51.052;6.982;2023-08-01T09:18:13;20.40;99.90
16243;DHT22;11719;51.052;6.982;2023-08-01T09:20:45;20.50;99.90
16243;DHT22;11719;51.052;6.982;2023-08-01T09:23:12;20.50;99.90
16243;DHT22;11719;51.052;6.982;2023-08-01T09:25:38;20.50;99.90
16243;DHT22;11719;51.052;6.982;2023-08-01T09:28:24;20.50;99.90
16243;DHT22;11719;51.052;6.982;2023-08-01T09:30:51;20.60;99.90
16243;DHT22;11719;51.052;6.982;2023-08-01T09:33:21;20.60;99.90
16243;DHT22;11719;51.052;6.982;2023-08-01T09:36:01;20.60;99.90
16243;DHT22;11719;51.052;6.982;2023-08-01T09:38:46;20.50;99.90
16243;DHT22;11719;51.052;6.982;2023-08-01T09:41:18;20.50;99.90
16243;DHT22;11719;51.052;6.982;2023-08-01T09:43:49;20.50;99.90
16243;DHT22;11719;51.052;6.982;2023-08-01T09:46:15;20.50;99.90
16243;DHT22;11719;51.052;6.982;2023-08-01T09:48:41;20.50;99.90
16243;DHT22;11719;51.052;6.982;2023-08-01T09:51:12;20.50;99.90
16243;DHT22;11719;51.052;6.982;2023-08-01T09:53:50;20.50;99.90
16243;DHT22;11719;51.052;6.982;2023-08-01T09:56:27;20.50;99.90
16243;DHT22;11719;51.052;6.982;2023-08-01T09:58:55;20.50;99.90
16243;DHT22;11719;51.052;6.982;2023-08-01T10:01:22;20.50;99.90
16243;DHT22;11719;51.052;6.982;2023-08-01T10:03:51;20.60;99.90
16243;DHT22;11719;51.052;6.982;2023-08-01T10:08:46;20.70;99.90
16243;DHT22;11719;51.052;6.982;2023-08-01T10:11:17;20.80;99.90
16243;DHT22;11719;51.052;6.982;2023-08-01T10:13:44;20.80;99.90
16243;DHT22;11719;51.052;6.982;2023-08-01T10:16:12;20.90;99.90
16243;DHT22;11719;51.052;6.982;2023-08-01T10:18:38;21.00;99.90
16243;DHT22;11719;51.052;6.982;2023-08-01T10:21:09;21.00;99.90
16243;DHT22;11719;51.052;6.982;2023-08-01T10:23:37;21.00;99.90
16243;DHT22;11719;51.052;6.982;2023-08-01T10:26:06;21.00;99.90
16243;DHT22;11719;51.052;6.982;2023-08-01T10:28:37;21.10;99.90
16243;DHT22;11719;51.052;6.982;2023-08-01T10:31:21;21.10;99.90
16243;DHT22;11719;51.052;6.982;2023-08-01T10:33:49;21.10;99.90
16243;DHT22;11719;51.052;6.982;2023-08-01T10:36:18;21.10;99.90
16243;DHT22;11719;51.052;6.982;2023-08-01T10:38:55;21.10;99.90
16243;DHT22;11719;51.052;6.982;2023-08-01T10:41:35;21.10;99.90
16243;DHT22;11719;51.052;6.982;2023-08-01T10:44:08;21.10;99.90
16243;DHT22;11719;51.052;6.982;2023-08-01T10:52:17;21.10;99.90
16243;DHT22;11719;51.052;6.982;2023-08-01T10:55:11;21.10;99.90
16243;DHT22;11719;51.052;6.982;2023-08-01T10:57:39;21.10;99.90
16243;DHT22;11719;51.052;6.982;2023-08-01T11:00:16;21.10;99.90
16243;DHT22;11719;51.052;6.982;2023-08-01T11:02:51;21.10;99.90
16243;DHT22;11719;51.052;6.982;2023-08-01T11:05:18;21.10;99.90
16243;DHT22;11719;51.052;6.982;2023-08-01T11:07:56;21.10;99.90
16243;DHT22;11719;51.052;6.982;2023-08-01T11:10:28;21.20;99.90
16243;DHT22;11719;51.052;6.982;2023-08-01T11:12:55;21.20;99.90
16243;DHT22;11719;51.052;6.982;2023-08-01T11:15:21;21.20;99.90
16243;DHT22;11719;51.052;6.982;2023-08-01T11:17:55;21.10;99.90
16243;DHT22;11719;51.052;6.982;2023-08-01T11:20:23;21.10;99.90
16243;DHT22;11719;51.052;6.982;2023-08-01T11:22:58;21.10;99.90
16243;DHT22;11719;51.052;6.982;2023-08-01T11:25:34;21.10;99.90
16243;DHT22;11719;51.052;6.982;2023-08-01T11:28:12;21.20;99.90
16243;DHT22;11719;51.052;6.982;2023-08-01T11:30:39;21.20;99.90
16243;DHT22;11719;51.052;6.982;2023-08-01T11:33:18;21.20;99.90
16243;DHT22;11719;51.052;6.982;2023-08-01T11:35:55;21.30;99.90
16243;DHT22;11719;51.052;6.982;2023-08-01T11:38:23;21.40;99.90
16243;DHT22;11719;51.052;6.982;2023-08-01T11:40:51;21.40;99.90
16243;DHT22;11719;51.052;6.982;2023-08-01T11:43:17;21.40;99.90
16243;DHT22;11719;51.052;6.982;2023-08-01T11:45:54;21.50;99.90
16243;DHT22;11719;51.052;6.982;2023-08-01T11:48:22;21.60;99.90
16243;DHT22;11719;51.052;6.982;2023-08-01T11:50:48;21.60;99.90
16243;DHT22;11719;51.052;6.982;2023-08-01T11:53:19;21.60;99.90
16243;DHT22;11719;51.052;6.982;2023-08-01T11:55:47;21.70;99.90
16243;DHT22;11719;51.052;6.982;2023-08-01T11:58:14;21.70;99.90
16243;DHT22;11719;51.052;6.982;2023-08-01T12:00:40;21.70;99.90
16243;DHT22;11719;51.052;6.982;2023-08-01T12:03:09;21.70;99.90
16243;DHT22;11719;51.052;6.982;2023-08-01T12:05:40;21.70;99.90
16243;DHT22;11719;51.052;6.982;2023-08-01T12:08:13;21.60;99.90
16243;DHT22;11719;51.052;6.982;2023-08-01T12:10:41;21.50;99.90
16243;DHT22;11719;51.052;6.982;2023-08-01T12:13:22;21.50;99.90
16243;DHT22;11719;51.052;6.982;2023-08-01T12:15:50;21.40;99.90
16243;DHT22;11719;51.052;6.982;2023-08-01T12:18:24;21.40;99.90
16243;DHT22;11719;51.052;6.982;2023-08-01T12:20:50;21.30;99.90
16243;DHT22;11719;51.052;6.982;2023-08-01T12:23:16;21.30;99.90
16243;DHT22;11719;51.052;6.982;2023-08-01T12:25:43;21.10;99.90
16243;DHT22;11719;51.052;6.982;2023-08-01T12:28:09;21.10;99.90
16243;DHT22;11719;51.052;6.982;2023-08-01T12:30:34;21.10;99.90
16243;DHT22;11719;51.052;6.982;2023-08-01T12:33:00;21.10;99.90
16243;DHT22;11719;51.052;6.982;2023-08-01T12:35:28;21.10;99.90
16243;DHT22;11719;51.052;6.982;2023-08-01T12:37:53;21.10;99.90
16243;DHT22;11719;51.052;6.982;2023-08-01T12:40:20;21.10;99.90
16243;DHT22;11719;51.052;6.982;2023-08-01T12:42:46;21.00;99.90
16243;DHT22;11719;51.052;6.982;2023-08-01T12:45:12;20.90;99.90
16243;DHT22;11719;51.052;6.982;2023-08-01T12:47:39;20.90;99.90
16243;DHT22;11719;51.052;6.982;2023-08-01T12:50:05;20.80;99.90
16243;DHT22;11719;51.052;6.982;2023-08-01T12:52:31;20.70;99.90
16243;DHT22;11719;51.052;6.982;2023-08-01T12:54:57;20.70;99.90
16243;DHT22;11719;51.052;6.982;2023-08-01T12:57:23;20.60;99.90
16243;DHT22;11719;51.052;6.982;2023-08-01T12:59:49;20.60;99.90
16243;DHT22;11719;51.052;6.982;2023-08-01T13:02:14;20.60;99.90
16243;DHT22;11719;51.052;6.982;2023-08-01T13:04:40;20.60;99.90
16243;DHT22;11719;51.052;6.982;2023-08-01T13:07:06;20.50;99.90
16243;DHT22;11719;51.052;6.982;2023-08-01T13:09:32;20.50;99.90
16243;DHT22;11719;51.052;6.982;2023-08-01T13:11:57;20.50;99.90
16243;DHT22;11719;51.052;6.982;2023-08-01T13:14:25;20.50;99.90
16243;DHT22;11719;51.052;6.982;2023-08-01T13:16:51;20.50;99.90
16243;DHT22;11719;51.052;6.982;2023-08-01T13:19:18;20.50;99.90
16243;DHT22;11719;51.052;6.982;2023-08-01T13:21:44;20.50;99.90
16243;DHT22;11719;51.052;6.982;2023-08-01T13:24:09;20.40;99.90
16243;DHT22;11719;51.052;6.982;2023-08-01T13:26:35;20.40;99.90
16243;DHT22;11719;51.052;6.982;2023-08-01T13:29:01;20.30;99.90
16243;DHT22;11719;51.052;6.982;2023-08-01T13:31:27;20.30;99.90
16243;DHT22;11719;51.052;6.982;2023-08-01T13:33:54;20.40;99.90
16243;DHT22;11719;51.052;6.982;2023-08-01T13:36:21;20.40;99.90
16243;DHT22;11719;51.052;6.982;2023-08-01T13:38:47;20.40;99.90
16243;DHT22;11719;51.052;6.982;2023-08-01T13:41:14;20.40;99.90
16243;DHT22;11719;51.052;6.982;2023-08-01T13:43:40;20.40;99.90
16243;DHT22;11719;51.052;6.982;2023-08-01T13:46:13;20.30;99.90
16243;DHT22;11719;51.052;6.982;2023-08-01T13:48:44;20.30;99.90
16243;DHT22;11719;51.052;6.982;2023-08-01T13:51:10;20.50;99.90
16243;DHT22;11719;51.052;6.982;2023-08-01T13:53:36;20.60;99.90
16243;DHT22;11719;51.052;6.982;2023-08-01T13:56:10;20.70;99.90
16243;DHT22;11719;51.052;6.982;2023-08-01T13:58:37;20.80;99.90
16243;DHT22;11719;51.052;6.982;2023-08-01T14:01:09;21.10;99.90
16243;DHT22;11719;51.052;6.982;2023-08-01T14:03:38;21.10;99.90
16243;DHT22;11719;51.052;6.982;2023-08-01T14:06:09;21.00;99.90
16243;DHT22;11719;51.052;6.982;2023-08-01T14:08:40;21.00;99.90
16243;DHT22;11719;51.052;6.982;2023-08-01T14:11:08;21.10;99.90
16243;DHT22;11719;51.052;6.982;2023-08-01T14:13:35;21.20;99.90
16243;DHT22;11719;51.052;6.982;2023-08-01T14:16:02;21.20;99.90
16243;DHT22;11719;51.052;6.982;2023-08-01T14:18:28;21.20;99.90
16243;DHT22;11719;51.052;6.982;2023-08-01T14:20:54;21.20;99.90
16243;DHT22;11719;51.052;6.982;2023-08-01T14:23:21;21.20;99.90
16243;DHT22;11719;51.052;6.982;2023-08-01T14:25:47;21.10;99.90
16243;DHT22;11719;51.052;6.982;2023-08-01T14:28:13;21.10;99.90
16243;DHT22;11719;51.052;6.982;2023-08-01T14:30:40;21.10;99.90
16243;DHT22;11719;51.052;6.982;2023-08-01T14:33:07;21.10;99.90
16243;DHT22;11719;51.052;6.982;2023-08-01T14:35:34;21.10;99.90
16243;DHT22;11719;51.052;6.982;2023-08-01T14:38:01;21.20;99.90
16243;DHT22;11719;51.052;6.982;2023-08-01T14:40:28;21.20;99.90
16243;DHT22;11719;51.052;6.982;2023-08-01T14:42:54;21.30;99.90
16243;DHT22;11719;51.052;6.982;2023-08-01T14:45:21;21.30;99.90
16243;DHT22;11719;51.052;6.982;2023-08-01T14:47:47;21.30;99.90
16243;DHT22;11719;51.052;6.982;2023-08-01T14:50:14;21.30;99.90
16243;DHT22;11719;51.052;6.982;2023-08-01T14:52:41;21.30;99.90
16243;DHT22;11719;51.052;6.982;2023-08-01T14:55:08;21.30;99.90
16243;DHT22;11719;51.052;6.982;2023-08-01T14:57:34;21.30;99.90
16243;DHT22;11719;51.052;6.982;2023-08-01T15:00:00;21.20;99.90
16243;DHT22;11719;51.052;6.982;2023-08-01T15:02:26;21.20;99.90
16243;DHT22;11719;51.052;6.982;2023-08-01T15:04:53;21.20;99.90
16243;DHT22;11719;51.052;6.982;2023-08-01T15:07:21;21.20;99.90
16243;DHT22;11719;51.052;6.982;2023-08-01T15:09:51;21.30;99.90
16243;DHT22;11719;51.052;6.982;2023-08-01T15:12:20;21.30;99.90
16243;DHT22;11719;51.052;6.982;2023-08-01T15:14:54;21.30;99.90
16243;DHT22;11719;51.052;6.982;2023-08-01T15:17:21;21.40;99.90
16243;DHT22;11719;51.052;6.982;2023-08-01T15:19:47;21.40;99.90
16243;DHT22;11719;51.052;6.982;2023-08-01T15:22:17;21.50;99.90
16243;DHT22;11719;51.052;6.982;2023-08-01T15:24:44;21.50;99.90
16243;DHT22;11719;51.052;6.982;2023-08-01T15:27:11;21.50;99.90
16243;DHT22;11719;51.052;6.982;2023-08-01T15:29:37;21.50;99.90
16243;DHT22;11719;51.052;6.982;2023-08-01T15:32:03;21.40;99.90
16243;DHT22;11719;51.052;6.982;2023-08-01T15:34:30;21.40;99.90
16243;DHT22;11719;51.052;6.982;2023-08-01T15:36:55;21.40;99.90
16243;DHT22;11719;51.052;6.982;2023-08-01T15:39:21;21.40;99.90
16243;DHT22;11719;51.052;6.982;2023-08-01T15:41:48;21.40;99.90